Yellowfin — WCW2778 — position and weather

sailwx.info

Track history (hours):
 
Tides and Currents Weather Stations Pressure Air Temp Water Temp Dewpoint Dewpoint Depression Visibility Wind Speed Wind Dir Waves Ship Positions

Oceanographic research ship Yellowfin (USA)

Detailed information on ship capabilities available from University of Delaware's Ocean Information Center.

Owner: CALIFORNIA STATE UNIVERSITY, TERMINAL ISLAND, CA. More information available from US FCC via Universal Licensing System and Coast Guard Vessel Documentation Center.

Last reported at 2019-Aug-16 20:43 UTC. Time now 2019-Aug-24 22:02 UTC.
Position N 33°43' W 118°15'.
Warning: this ship's position is 8 days out of date.

; draft 2.5 m.

Type: Other ship. MMSI: 367000160.

Date/timePositionNaut miles runAvg speedWind from/ knotsBaromVisibWave heightAir tempDewpointWater temp
2019-Aug-16 20:43N 33°43' W 118°15'2 8.1
2019-Aug-16 20:30N 33°41' W 118°16'5 9.6
2019-Aug-16 20:00N 33°38' W 118°20'5 9.3
2019-Aug-16 19:30N 33°34' W 118°24'1 1.8
2019-Aug-16 19:00N 33°33' W 118°24'0 0.4
2019-Aug-16 18:31N 33°33' W 118°24'0 0.5
2019-Aug-16 18:01N 33°33' W 118°24'0 0.4
2019-Aug-16 17:26N 33°33' W 118°24'0 0.3
2019-Aug-16 17:01N 33°33' W 118°24'0 0.6
2019-Aug-16 16:30N 33°33' W 118°24'0 0.4
2019-Aug-16 16:00N 33°33' W 118°24'3 5.8
2019-Aug-16 15:30N 33°35' W 118°22'4 8.5
2019-Aug-16 15:01N 33°39' W 118°19'4 8.7
2019-Aug-16 14:31N 33°42' W 118°15'2 4.5
2019-Aug-16 14:01N 33°44' W 118°16'0 0.0
2019-Aug-15 21:27N 33°44' W 118°16'0 1.0
2019-Aug-15 21:00N 33°44' W 118°16'2 4.3
2019-Aug-15 20:30N 33°46' W 118°16'2 4.5
2019-Aug-15 20:00N 33°44' W 118°16'1 1.4
2019-Aug-15 19:30N 33°44' W 118°15'1 1.7
2019-Aug-15 19:00N 33°43' W 118°15'1 1.9
2019-Aug-15 18:30N 33°43' W 118°16'1 1.6
2019-Aug-15 18:00N 33°43' W 118°17'1 1.6
2019-Aug-15 17:30N 33°44' W 118°16'2 3.5
2019-Aug-15 17:00N 33°45' W 118°17'1 1.3
2019-Aug-15 16:30N 33°45' W 118°16'2 3.2
2019-Aug-15 16:00N 33°46' W 118°15'1 1.2
2019-Aug-15 15:30N 33°46' W 118°15'1 1.7
2019-Aug-15 15:00N 33°46' W 118°16'2 3.1
2019-Aug-15 14:30N 33°45' W 118°17'  
2019-Aug-09 21:51N 33°43' W 118°16'3 7.7
2019-Aug-09 21:30N 33°41' W 118°16'5 9.7
2019-Aug-09 21:00N 33°37' W 118°19'5 9.6
2019-Aug-09 20:29N 33°33' W 118°23'4 9.2
2019-Aug-09 20:00N 33°29' W 118°25'2 4.1
2019-Aug-09 19:30N 33°27' W 118°26'0 0.1
2019-Aug-09 19:00N 33°27' W 118°26'0 0.1
2019-Aug-09 18:30N 33°27' W 118°26'0 0.2
2019-Aug-09 18:00N 33°27' W 118°26'0 0.9
2019-Aug-09 17:30N 33°27' W 118°27'2 2.6
2019-Aug-09 16:52N 33°28' W 118°29'5 8.6
2019-Aug-09 16:20N 33°32' W 118°25'15 6.6
2019-Aug-09 14:06N 33°44' W 118°16'  
Track history (hours):
 
Tides and Currents Weather Stations Pressure Air Temp Water Temp Dewpoint Dewpoint Depression Visibility Wind Speed Wind Dir Waves Ship Positions

Oceanographic research ship Yellowfin (USA)

Detailed information on ship capabilities available from University of Delaware's Ocean Information Center.

Owner: CALIFORNIA STATE UNIVERSITY, TERMINAL ISLAND, CA. More information available from US FCC via Universal Licensing System and Coast Guard Vessel Documentation Center.

Last reported at 2019-Aug-16 20:43 UTC. Time now 2019-Aug-24 22:02 UTC.
Position N 33°43' W 118°15'.
Warning: this ship's position is 8 days out of date.

; draft 2.5 m.

Type: Other ship. MMSI: 367000160.

Date/timePositionNaut miles runAvg speedWind from/ knotsBaromVisibWave heightAir tempDewpointWater temp
2019-Aug-16 20:43N 33°43' W 118°15'2 8.1
2019-Aug-16 20:30N 33°41' W 118°16'5 9.6
2019-Aug-16 20:00N 33°38' W 118°20'5 9.3
2019-Aug-16 19:30N 33°34' W 118°24'1 1.8
2019-Aug-16 19:00N 33°33' W 118°24'0 0.4
2019-Aug-16 18:31N 33°33' W 118°24'0 0.5
2019-Aug-16 18:01N 33°33' W 118°24'0 0.4
2019-Aug-16 17:26N 33°33' W 118°24'0 0.3
2019-Aug-16 17:01N 33°33' W 118°24'0 0.6
2019-Aug-16 16:30N 33°33' W 118°24'0 0.4
2019-Aug-16 16:00N 33°33' W 118°24'3 5.8
2019-Aug-16 15:30N 33°35' W 118°22'4 8.5
2019-Aug-16 15:01N 33°39' W 118°19'4 8.7
2019-Aug-16 14:31N 33°42' W 118°15'2 4.5
2019-Aug-16 14:01N 33°44' W 118°16'0 0.0
2019-Aug-15 21:27N 33°44' W 118°16'0 1.0
2019-Aug-15 21:00N 33°44' W 118°16'2 4.3
2019-Aug-15 20:30N 33°46' W 118°16'2 4.5
2019-Aug-15 20:00N 33°44' W 118°16'1 1.4
2019-Aug-15 19:30N 33°44' W 118°15'1 1.7
2019-Aug-15 19:00N 33°43' W 118°15'1 1.9
2019-Aug-15 18:30N 33°43' W 118°16'1 1.6
2019-Aug-15 18:00N 33°43' W 118°17'1 1.6
2019-Aug-15 17:30N 33°44' W 118°16'2 3.5
2019-Aug-15 17:00N 33°45' W 118°17'1 1.3
2019-Aug-15 16:30N 33°45' W 118°16'2 3.2
2019-Aug-15 16:00N 33°46' W 118°15'1 1.2
2019-Aug-15 15:30N 33°46' W 118°15'1 1.7
2019-Aug-15 15:00N 33°46' W 118°16'2 3.1
2019-Aug-15 14:30N 33°45' W 118°17'  
2019-Aug-09 21:51N 33°43' W 118°16'3 7.7
2019-Aug-09 21:30N 33°41' W 118°16'5 9.7
2019-Aug-09 21:00N 33°37' W 118°19'5 9.6
2019-Aug-09 20:29N 33°33' W 118°23'4 9.2
2019-Aug-09 20:00N 33°29' W 118°25'2 4.1
2019-Aug-09 19:30N 33°27' W 118°26'0 0.1
2019-Aug-09 19:00N 33°27' W 118°26'0 0.1
2019-Aug-09 18:30N 33°27' W 118°26'0 0.2
2019-Aug-09 18:00N 33°27' W 118°26'0 0.9
2019-Aug-09 17:30N 33°27' W 118°27'2 2.6
2019-Aug-09 16:52N 33°28' W 118°29'5 8.6
2019-Aug-09 16:20N 33°32' W 118°25'15 6.6
2019-Aug-09 14:06N 33°44' W 118°16'  

Dump ship's entire track history